createdAt,value
2022-11-08T00:00:14.860Z,18.4
2022-11-08T00:05:50.889Z,18.4
2022-11-08T00:11:13.301Z,18.4
2022-11-08T00:16:19.348Z,18.4
2022-11-08T00:21:56.286Z,18.4
2022-11-08T00:27:33.909Z,18.4
2022-11-08T00:32:55.499Z,18.4
2022-11-08T00:38:32.792Z,18.4
2022-11-08T00:44:10.849Z,18.4
2022-11-08T00:49:47.386Z,18.4
2022-11-08T00:55:24.367Z,18.4
2022-11-08T01:01:25.070Z,18.4
2022-11-08T01:06:46.881Z,18.4
2022-11-08T01:12:23.912Z,18.4
2022-11-08T01:17:45.700Z,18.4
2022-11-08T01:23:08.370Z,18.4
2022-11-08T01:28:45.908Z,18.4
2022-11-08T01:34:24.883Z,18.4
2022-11-08T01:40:01.392Z,18.4
2022-11-08T01:45:07.687Z,18.4
2022-11-08T01:50:46.596Z,18.4
2022-11-08T01:56:08.107Z,18.4
2022-11-08T02:01:44.294Z,18.4
2022-11-08T02:07:21.933Z,18.4
2022-11-08T02:12:42.722Z,18.4
2022-11-08T02:18:25.041Z,18.4
2022-11-08T02:23:48.029Z,18.4
2022-11-08T02:29:24.870Z,18.4
2022-11-08T02:34:45.998Z,18.4
2022-11-08T02:40:23.712Z,18.4
2022-11-08T02:46:01.124Z,18.4
2022-11-08T02:51:39.896Z,18.4
2022-11-08T02:57:02.640Z,18.4
2022-11-08T03:02:39.571Z,18.4
2022-11-08T03:08:01.464Z,18.4
2022-11-08T03:13:24.430Z,18.4
2022-11-08T03:19:02.216Z,18.4
2022-11-08T03:24:43.637Z,18.4
2022-11-08T03:30:21.798Z,18.4
2022-11-08T03:35:42.810Z,18.4
2022-11-08T03:41:03.916Z,18.4
2022-11-08T03:46:41.930Z,18.4
2022-11-08T03:52:18.452Z,18.4
2022-11-08T03:57:55.247Z,18.4
2022-11-08T04:03:33.991Z,18.4
2022-11-08T04:08:55.523Z,18.4
2022-11-08T04:14:32.609Z,18.4
2022-11-08T04:20:15.652Z,18.5
2022-11-08T04:25:53.181Z,18.4
2022-11-08T04:30:59.206Z,18.4
2022-11-08T04:36:21.309Z,18.5
2022-11-08T04:42:02.026Z,18.4
2022-11-08T04:47:08.719Z,18.5
2022-11-08T04:52:52.817Z,18.6
2022-11-08T04:58:14.537Z,18.5
2022-11-08T05:03:43.682Z,18.6
2022-11-08T05:09:06.458Z,18.6
2022-11-08T05:14:49.042Z,18.6
2022-11-08T05:20:18.060Z,18.6
2022-11-08T05:25:56.549Z,18.6
2022-11-08T05:31:37.425Z,18.6
2022-11-08T05:37:14.249Z,18.6
2022-11-08T05:42:45.844Z,18.6
2022-11-08T05:48:07.363Z,18.6
2022-11-08T05:53:44.304Z,18.6
2022-11-08T05:59:22.746Z,18.6
2022-11-08T06:05:02.491Z,18.4
2022-11-08T06:10:45.038Z,18.3
2022-11-08T06:16:24.223Z,18.3
2022-11-08T06:22:01.650Z,18.2
2022-11-08T06:27:42.886Z,18.3
2022-11-08T06:33:06.599Z,18.3
2022-11-08T06:38:34.758Z,18.3
2022-11-08T06:44:12.517Z,18.2
2022-11-08T06:49:40.737Z,18.2
2022-11-08T06:55:23.345Z,18.2
2022-11-08T07:01:00.200Z,18.2
2022-11-08T07:06:25.558Z,18.2
2022-11-08T07:12:04.426Z,18.2
2022-11-08T07:17:41.507Z,18.1
2022-11-08T07:23:19.862Z,18.1
2022-11-08T07:28:57.310Z,18.1
2022-11-08T07:34:36.449Z,18.1
2022-11-08T07:39:59.316Z,18.1
2022-11-08T07:46:04.088Z,18.1
2022-11-08T07:51:40.855Z,18.1
2022-11-08T07:57:22.787Z,18.1
2022-11-08T08:03:01.250Z,18.1
2022-11-08T08:08:39.170Z,18.1
2022-11-08T08:14:23.496Z,18.1
2022-11-08T08:19:47.329Z,18.1
2022-11-08T08:25:24.693Z,18.1
2022-11-08T08:31:02.525Z,18.1
2022-11-08T08:37:14.872Z,18.1
2022-11-08T08:42:59.254Z,18.1
2022-11-08T08:48:38.986Z,18.1
2022-11-08T08:54:16.447Z,18.1
2022-11-08T09:02:24.812Z,18.1
2022-11-08T09:07:49.589Z,18.9
2022-11-08T09:13:14.796Z,19.4
2022-11-08T09:18:36.859Z,19.7
2022-11-08T09:23:59.342Z,20.3
2022-11-08T09:29:21.486Z,20.7
2022-11-08T09:35:11.318Z,20.9
2022-11-08T09:40:39.177Z,21.3
2022-11-08T09:46:02.171Z,21.6
2022-11-08T09:51:40.076Z,21.9
2022-11-08T09:57:19.968Z,22.4
2022-11-08T10:03:03.477Z,22.7
2022-11-08T10:08:26.916Z,23.6
2022-11-08T10:14:06.278Z,24.3
2022-11-08T10:19:39.657Z,25.1
2022-11-08T10:25:17.563Z,26.9
2022-11-08T10:30:58.022Z,27.6
2022-11-08T10:36:35.948Z,28.7
2022-11-08T10:42:13.499Z,29.4
2022-11-08T10:47:56.761Z,30.9
2022-11-08T10:53:36.607Z,32.8
2022-11-08T10:59:14.007Z,34.1
2022-11-08T11:04:54.224Z,35.5
2022-11-08T11:10:31.993Z,35.4
2022-11-08T11:15:58.630Z,34.8
2022-11-08T11:21:36.879Z,34.3
2022-11-08T11:27:14.498Z,34.4
2022-11-08T11:32:52.065Z,34.7
2022-11-08T11:38:30.370Z,35
2022-11-08T11:44:34.857Z,35.1
2022-11-08T11:50:16.449Z,35.6
2022-11-08T11:56:00.327Z,35.7
2022-11-08T12:01:42.284Z,35.5
2022-11-08T12:07:05.634Z,37.4
2022-11-08T12:12:43.803Z,38.3
2022-11-08T12:18:41.311Z,39.1
2022-11-08T12:24:07.964Z,39.8
2022-11-08T12:29:48.111Z,40.4
2022-11-08T12:35:25.461Z,40.7
2022-11-08T12:41:02.949Z,41
2022-11-08T12:46:40.709Z,41.1
2022-11-08T12:52:23.596Z,41.5
2022-11-08T12:58:00.657Z,41.3
2022-11-08T13:03:40.715Z,40.7
2022-11-08T13:09:22.942Z,39.8
2022-11-08T13:15:00.120Z,39.5
2022-11-08T13:20:39.111Z,40.1
2022-11-08T13:26:40.203Z,40.6
2022-11-08T13:32:05.378Z,40.9
2022-11-08T13:37:43.530Z,41
2022-11-08T13:43:25.255Z,41
2022-11-08T13:49:03.612Z,40.9
2022-11-08T13:54:41.836Z,40.8
2022-11-08T14:00:19.910Z,40.6
2022-11-08T14:05:58.512Z,40.3
2022-11-08T14:11:45.326Z,39.9
2022-11-08T14:17:22.548Z,39.5
2022-11-08T14:23:06.183Z,39.2
2022-11-08T14:28:44.957Z,38.8
2022-11-08T14:34:28.774Z,38.3
2022-11-08T14:40:08.789Z,37.8
2022-11-08T14:45:47.473Z,37.3
2022-11-08T14:51:25.539Z,36.8
2022-11-08T14:56:53.668Z,35.9
2022-11-08T15:02:32.191Z,33.8
2022-11-08T15:07:54.424Z,32.4
2022-11-08T15:13:33.029Z,31.4
2022-11-08T15:19:15.992Z,30.7
2022-11-08T15:24:53.537Z,30.1
2022-11-08T15:30:33.547Z,29.6
2022-11-08T15:36:00.602Z,29.3
2022-11-08T15:41:42.616Z,28.9
2022-11-08T15:47:04.237Z,28.7
2022-11-08T15:52:42.572Z,28.4
2022-11-08T15:58:20.029Z,28.2
2022-11-08T16:03:42.765Z,27.9
2022-11-08T16:09:26.025Z,27.8
2022-11-08T16:14:48.227Z,27.6
2022-11-08T16:20:31.082Z,27.5
2022-11-08T16:26:15.255Z,27.4
2022-11-08T16:31:37.254Z,27.3
2022-11-08T16:36:59.080Z,27.2
2022-11-08T16:42:37.366Z,27.1
2022-11-08T16:48:33.135Z,27.1
2022-11-08T16:54:10.786Z,27
2022-11-08T17:00:19.600Z,26.9
2022-11-08T17:05:26.613Z,26.8
2022-11-08T17:11:09.819Z,26.4
2022-11-08T17:16:48.605Z,26.2
2022-11-08T17:23:05.294Z,26
2022-11-08T17:28:47.468Z,25.8
2022-11-08T17:34:27.001Z,25.8
2022-11-08T17:40:05.276Z,25.7
2022-11-08T17:45:46.044Z,25.6
2022-11-08T17:51:24.128Z,25.5
2022-11-08T17:57:05.297Z,25.5
2022-11-08T18:02:27.831Z,25.4
2022-11-08T18:08:07.391Z,25.4
2022-11-08T18:13:33.776Z,25.4
2022-11-08T18:19:00.358Z,25.3
2022-11-08T18:24:08.286Z,25.3
2022-11-08T18:29:50.930Z,25.3
2022-11-08T18:35:34.286Z,25.3
2022-11-08T18:41:15.410Z,25.3
2022-11-08T18:46:59.444Z,25.3
2022-11-08T18:52:37.341Z,25.3
2022-11-08T18:58:14.963Z,25.3
2022-11-08T19:03:57.834Z,25.3
2022-11-08T19:09:07.760Z,25.3
2022-11-08T19:14:45.592Z,25
2022-11-08T19:20:07.213Z,24.1
2022-11-08T19:25:44.105Z,23.4
2022-11-08T19:31:24.510Z,22.9
2022-11-08T19:36:48.090Z,22.7
2022-11-08T19:42:28.847Z,22.4
2022-11-08T19:47:36.840Z,22.3
2022-11-08T19:52:58.844Z,22.2
2022-11-08T19:58:27.937Z,22.1
2022-11-08T20:03:50.598Z,22.1
2022-11-08T20:09:13.515Z,22
2022-11-08T20:14:36.439Z,22
2022-11-08T20:19:45.025Z,22
2022-11-08T20:25:22.735Z,22
2022-11-08T20:30:52.262Z,21.9
2022-11-08T20:36:35.203Z,21.9
2022-11-08T20:41:59.328Z,21.9
2022-11-08T20:47:27.341Z,21.9
2022-11-08T20:53:14.838Z,21.9
2022-11-08T20:58:58.005Z,21.9
2022-11-08T21:04:57.938Z,21.9
2022-11-08T21:13:13.508Z,21.9
2022-11-08T21:19:00.659Z,21.8
2022-11-08T21:32:01.437Z,21.4
2022-11-08T21:37:39.917Z,21.4
2022-11-08T21:43:21.514Z,21.4
2022-11-08T21:49:04.387Z,21.4
2022-11-08T21:54:48.848Z,21.4
2022-11-08T22:00:25.251Z,21.3
2022-11-08T22:05:33.313Z,21.3
2022-11-08T22:11:01.135Z,21.4
2022-11-08T22:16:22.897Z,21.3
2022-11-08T22:22:08.199Z,21.3
2022-11-08T22:27:30.423Z,21.3
2022-11-08T22:32:36.468Z,21.4
2022-11-08T22:38:02.072Z,21.3
2022-11-08T22:43:25.008Z,21.4
2022-11-08T22:48:46.446Z,21.4
2022-11-08T22:53:57.020Z,21.4
2022-11-08T22:58:48.693Z,21.4
2022-11-08T23:03:55.655Z,21.4
2022-11-08T23:09:03.178Z,21.4
2022-11-08T23:14:26.096Z,21.4
2022-11-08T23:19:32.077Z,21.4
2022-11-08T23:24:54.621Z,21.4
2022-11-08T23:30:03.959Z,21.4
2022-11-08T23:35:09.887Z,21.4
2022-11-08T23:40:19.994Z,21.4
2022-11-08T23:45:57.036Z,21.4
2022-11-08T23:51:02.970Z,21.4
2022-11-08T23:56:24.858Z,21.4
